Time;durP1;ratioP1;P1;durP2;ratioP2;P2;SDS_P1;SDS_P2;PMS_P1;PMS_P2;Temp;Humidity;BMP_temperature;BMP_pressure;BME280_temperature;BME280_humidity;BME280_pressure;Samples;Min_cycle;Max_cycle;Signal;HPM_P1;HPM_P2
2022/09/06 00:01:37;;;;;;;2.17;1.30;;;;;;;10.15;75.65;99727.78;4987352;28;20046;-46
2022/09/06 00:04:03;;;;;;;1.83;1.30;;;;;;;10.16;75.96;99725.13;4963607;28;20434;-47
2022/09/06 00:06:29;;;;;;;3.88;1.40;;;;;;;10.18;75.48;99725.94;4976211;28;20038;-47
2022/09/06 00:08:55;;;;;;;3.15;1.83;;;;;;;9.99;75.30;99687.59;4975357;28;20527;-49
2022/09/06 00:11:20;;;;;;;3.10;1.20;;;;;;;10.18;75.33;99715.56;4974523;28;20050;-46
2022/09/06 00:13:46;;;;;;;4.60;1.20;;;;;;;10.25;75.37;99724.00;4973896;28;20038;-48
2022/09/06 00:16:17;;;;;;;4.53;1.30;;;;;;;10.23;75.07;99715.41;4974151;28;20295;-48
2022/09/06 00:18:43;;;;;;;2.45;1.00;;;;;;;10.31;75.22;99728.16;4974627;28;20137;-48
2022/09/06 00:21:21;;;;;;;3.40;1.20;;;;;;;10.05;74.98;99671.78;4975555;28;20046;-46
2022/09/06 00:23:47;;;;;;;1.42;0.75;;;;;;;10.32;74.96;99712.50;4978087;28;20043;-51
2022/09/06 00:26:13;;;;;;;3.28;1.30;;;;;;;10.25;74.51;99694.59;4973720;28;20043;-50
2022/09/06 00:28:39;;;;;;;2.50;1.00;;;;;;;10.40;74.44;99714.84;4972274;28;20094;-46
2022/09/06 00:31:16;;;;;;;1.90;0.88;;;;;;;10.40;74.68;99715.72;4972537;28;20059;-46
2022/09/06 00:33:42;;;;;;;1.95;1.00;;;;;;;10.16;74.13;99677.53;4972114;28;20173;-48
2022/09/06 00:36:09;;;;;;;2.13;1.00;;;;;;;10.32;74.49;99716.84;4991850;28;20038;-45
2022/09/06 00:38:36;;;;;;;2.00;1.13;;;;;;;10.26;74.80;99710.09;4983408;28;20296;-49
2022/09/06 00:41:02;;;;;;;3.25;1.08;;;;;;;10.23;74.54;99712.81;4971306;28;20059;-49
2022/09/06 00:43:27;;;;;;;1.52;0.98;;;;;;;10.06;74.34;99689.06;4972379;28;20043;-47
2022/09/06 00:45:53;;;;;;;2.72;1.08;;;;;;;10.26;74.62;99719.66;4971824;28;20055;-47
2022/09/06 00:48:21;;;;;;;1.50;0.93;;;;;;;10.26;74.51;99720.50;4970856;28;20515;-49
2022/09/06 00:50:47;;;;;;;1.15;0.93;;;;;;;10.27;74.21;99709.19;4919959;29;20125;-50
2022/09/06 00:53:13;;;;;;;2.40;0.75;;;;;;;10.27;74.06;99717.00;4958088;28;20043;-45
2022/09/06 00:55:41;;;;;;;2.08;0.90;;;;;;;10.04;74.07;99681.34;4971124;28;20043;-48
2022/09/06 00:58:08;;;;;;;1.42;0.90;;;;;;;10.17;74.26;99703.47;4970623;28;20038;-50
2022/09/06 01:00:34;;;;;;;2.67;1.23;;;;;;;10.22;74.06;99711.09;4971846;28;20689;-47
2022/09/06 01:03:00;;;;;;;2.70;0.80;;;;;;;10.16;74.30;99700.91;4971683;28;20134;-49
2022/09/06 01:05:38;;;;;;;1.45;0.95;;;;;;;10.11;73.94;99694.97;4971314;28;20053;-46
2022/09/06 01:08:26;;;;;;;1.23;1.00;;;;;;;10.23;73.71;99715.41;4955752;28;20663;-48
2022/09/06 01:10:59;;;;;;;2.83;1.10;;;;;;;10.23;74.21;99701.56;4965560;28;20065;-51
2022/09/06 01:13:37;;;;;;;2.67;1.23;;;;;;;10.23;74.08;99711.97;4970353;28;20526;-46
2022/09/06 01:16:42;;;;;;;1.70;1.17;;;;;;;10.25;74.11;99707.56;4971582;28;20612;-47
2022/09/06 01:19:43;;;;;;;1.33;1.20;;;;;;;10.26;73.93;99712.69;4956324;28;20050;-45
2022/09/06 01:22:46;;;;;;;1.80;1.58;;;;;;;10.24;74.16;99705.88;4970066;28;20050;-48
2022/09/06 01:25:32;;;;;;;5.03;1.90;;;;;;;10.23;74.00;99712.81;4983794;28;20043;-48
2022/09/06 01:28:13;;;;;;;4.85;1.30;;;;;;;10.21;74.58;99722.38;4991254;28;20041;-47
2022/09/06 01:30:46;;;;;;;1.85;1.20;;;;;;;10.20;74.40;99713.75;4971233;28;20055;-46
2022/09/06 01:33:21;;;;;;;2.65;1.20;;;;;;;10.21;74.52;99706.81;4969752;28;20066;-50
2022/09/06 01:35:50;;;;;;;1.40;1.25;;;;;;;10.06;74.35;99686.47;4970176;28;20499;-51
2022/09/06 01:38:16;;;;;;;4.25;1.25;;;;;;;10.15;74.55;99705.22;4949597;28;20400;-50
2022/09/06 01:40:42;;;;;;;2.33;1.35;;;;;;;10.07;74.83;99715.03;4967084;28;20055;-48
2022/09/06 01:43:13;;;;;;;2.60;1.40;;;;;;;10.07;74.94;99719.34;4969630;28;20041;-47
2022/09/06 01:45:59;;;;;;;1.50;1.33;;;;;;;10.09;74.88;99715.84;4969865;28;20145;-45
2022/09/06 01:48:47;;;;;;;1.88;1.40;;;;;;;10.05;74.43;99716.81;4970842;28;20042;-45
2022/09/06 01:51:24;;;;;;;2.80;1.60;;;;;;;9.99;74.82;99719.63;4951918;29;20047;-46
2022/09/06 01:54:18;;;;;;;2.88;1.52;;;;;;;9.94;75.34;99721.50;4961503;28;20045;-48
2022/09/06 01:57:14;;;;;;;2.88;1.50;;;;;;;9.96;75.55;99721.44;4969769;28;20047;-46
2022/09/06 01:59:49;;;;;;;1.90;1.33;;;;;;;9.98;74.99;99714.47;4966834;28;20058;-46
2022/09/06 02:02:25;;;;;;;4.55;1.63;;;;;;;9.98;74.54;99719.66;4969673;28;20470;-47
2022/09/06 02:04:55;;;;;;;1.70;1.35;;;;;;;9.98;74.61;99717.06;4937519;28;20062;-48
2022/09/06 02:07:24;;;;;;;2.40;1.45;;;;;;;9.98;74.18;99720.50;4975699;28;20050;-50
2022/09/06 02:09:58;;;;;;;1.75;1.40;;;;;;;9.99;74.66;99716.16;4969828;28;20052;-46
2022/09/06 02:12:25;;;;;;;2.15;1.30;;;;;;;9.95;73.89;99720.59;4971111;28;20148;-46
2022/09/06 02:15:08;;;;;;;2.97;1.60;;;;;;;9.96;73.39;99724.03;4970594;28;20070;-46
2022/09/06 02:17:38;;;;;;;3.03;1.60;;;;;;;9.97;74.05;99716.22;4949873;28;20549;-47
2022/09/06 02:20:19;;;;;;;4.50;1.65;;;;;;;10.00;73.61;99723.03;4964332;28;20045;-46
2022/09/06 02:22:45;;;;;;;4.88;1.80;;;;;;;9.89;73.42;99699.19;4949834;29;20046;-46
2022/09/06 02:25:17;;;;;;;3.55;1.55;;;;;;;9.82;73.35;99685.53;4974632;28;20438;-46
2022/09/06 02:27:43;;;;;;;2.95;1.85;;;;;;;9.95;73.23;99701.56;4989860;28;20042;-46
2022/09/06 02:30:09;;;;;;;3.58;1.75;;;;;;;10.11;73.22;99721.81;4956308;28;20461;-46
2022/09/06 02:32:42;;;;;;;3.08;1.60;;;;;;;10.14;73.24;99734.72;4975229;28;20359;-46
2022/09/06 02:35:12;;;;;;;3.70;1.65;;;;;;;10.14;73.27;99726.06;4968771;28;20142;-47
2022/09/06 02:37:38;;;;;;;2.75;1.60;;;;;;;10.15;72.93;99738.16;4978050;28;20053;-48
2022/09/06 02:40:04;;;;;;;2.85;1.65;;;;;;;10.17;73.28;99723.41;4974882;28;20055;-50
2022/09/06 02:42:30;;;;;;;2.50;1.60;;;;;;;10.19;72.45;99729.41;4969956;28;20090;-47
2022/09/06 02:44:56;;;;;;;3.25;1.42;;;;;;;10.18;72.45;99731.16;4969106;28;20050;-46
2022/09/06 02:47:22;;;;;;;2.92;1.63;;;;;;;10.19;71.97;99721.59;4968724;28;20050;-48
2022/09/06 02:49:48;;;;;;;2.65;1.98;;;;;;;10.22;72.06;99728.44;4984349;28;20434;-49
2022/09/06 02:52:14;;;;;;;3.15;1.88;;;;;;;10.20;71.94;99724.13;4972173;28;20596;-49
2022/09/06 02:54:40;;;;;;;3.08;1.58;;;;;;;10.14;72.10;99726.06;4964971;28;20043;-48
2022/09/06 02:57:06;;;;;;;3.83;2.17;;;;;;;10.14;72.80;99729.53;4968726;28;20038;-48
2022/09/06 02:59:31;;;;;;;2.60;1.83;;;;;;;10.13;72.37;99734.75;4970104;28;20043;-48
2022/09/06 03:01:57;;;;;;;5.65;1.70;;;;;;;10.11;72.73;99731.34;4951228;28;20046;-46
2022/09/06 03:04:23;;;;;;;3.65;1.35;;;;;;;10.13;72.63;99727.81;4970040;28;20035;-44
2022/09/06 03:06:49;;;;;;;3.50;1.50;;;;;;;10.16;72.36;99737.28;4968770;28;20047;-45
2022/09/06 03:09:15;;;;;;;2.45;1.48;;;;;;;10.18;72.78;99738.94;4969377;28;20101;-48
2022/09/06 03:11:41;;;;;;;3.72;1.60;;;;;;;10.16;72.58;99729.47;4969891;28;20153;-49
2022/09/06 03:14:07;;;;;;;2.58;1.20;;;;;;;10.17;72.34;99738.97;4964079;28;20171;-46
2022/09/06 03:16:33;;;;;;;3.45;1.52;;;;;;;10.14;72.39;99729.53;4953717;28;20050;-45
2022/09/06 03:18:59;;;;;;;2.90;1.30;;;;;;;10.15;71.92;99727.78;4949054;28;20541;-46
2022/09/06 03:21:25;;;;;;;4.90;1.13;;;;;;;10.14;71.85;99732.13;4966665;28;20133;-46
2022/09/06 03:23:51;;;;;;;1.45;1.30;;;;;;;10.16;72.10;99732.94;4969593;28;20049;-44
2022/09/06 03:26:17;;;;;;;2.55;1.30;;;;;;;10.11;71.96;99727.00;4966735;28;20050;-45
2022/09/06 03:28:43;;;;;;;5.53;1.40;;;;;;;10.16;71.98;99734.69;4967452;28;20097;-45
2022/09/06 03:31:09;;;;;;;2.05;1.65;;;;;;;10.16;72.28;99740.72;4970303;28;20050;-49
2022/09/06 03:33:35;;;;;;;2.70;1.60;;;;;;;10.15;72.54;99749.38;4970189;28;20050;-47
2022/09/06 03:36:02;;;;;;;3.45;1.40;;;;;;;10.14;72.68;99739.06;4966602;28;20047;-51
2022/09/06 03:38:28;;;;;;;2.15;1.75;;;;;;;10.14;72.52;99745.09;4968503;28;20097;-51
2022/09/06 03:40:54;;;;;;;1.80;1.40;;;;;;;10.15;72.96;99745.97;4969625;28;20450;-49
2022/09/06 03:43:21;;;;;;;1.67;1.40;;;;;;;10.13;73.06;99745.16;4967474;28;20113;-48
2022/09/06 03:45:53;;;;;;;3.05;1.60;;;;;;;10.17;73.01;99749.38;4968364;28;20499;-50
2022/09/06 03:48:20;;;;;;;1.88;1.42;;;;;;;10.20;72.45;99749.28;4969203;28;20074;-44
2022/09/06 03:50:48;;;;;;;2.55;1.40;;;;;;;10.23;72.35;99748.34;4969412;28;20043;-45
2022/09/06 03:53:14;;;;;;;2.28;1.88;;;;;;;10.26;72.40;99750.84;4966400;28;20121;-47
2022/09/06 03:55:46;;;;;;;1.30;1.00;;;;;;;10.27;72.48;99757.72;4968324;28;20039;-47
2022/09/06 03:58:12;;;;;;;3.55;1.17;;;;;;;10.25;72.44;99750.00;4966727;28;20046;-45
2022/09/06 04:00:38;;;;;;;2.28;1.08;;;;;;;10.26;71.97;99746.47;4969462;28;20038;-45
2022/09/06 04:03:04;;;;;;;2.90;1.20;;;;;;;10.13;71.81;99722.63;4971845;28;20069;-45
2022/09/06 04:05:30;;;;;;;1.10;1.00;;;;;;;10.21;71.43;99735.38;4972845;28;20495;-48
2022/09/06 04:07:56;;;;;;;3.53;1.13;;;;;;;10.33;71.79;99740.19;4971465;28;20046;-46
2022/09/06 04:10:22;;;;;;;1.17;0.90;;;;;;;10.24;71.24;99734.44;4972092;28;20043;-49
2022/09/06 04:12:48;;;;;;;4.43;1.20;;;;;;;10.38;71.07;99743.50;4973033;28;20038;-49
2022/09/06 04:15:14;;;;;;;2.25;1.20;;;;;;;10.39;71.03;99754.75;4971784;28;20043;-49
2022/09/06 04:17:44;;;;;;;1.70;1.10;;;;;;;10.39;70.89;99747.78;4970529;28;20047;-49
2022/09/06 04:20:11;;;;;;;9.85;1.10;;;;;;;10.43;71.39;99745.94;4979613;28;20047;-48
2022/09/06 04:22:37;;;;;;;2.08;0.70;;;;;;;10.45;71.01;99746.75;4962235;28;20046;-47
2022/09/06 04:25:03;;;;;;;0.85;0.75;;;;;;;10.34;70.01;99726.31;4972611;28;20101;-49
2022/09/06 04:27:29;;;;;;;3.47;0.90;;;;;;;10.46;70.48;99740.66;4954074;28;20046;-52
2022/09/06 04:29:55;;;;;;;1.70;0.90;;;;;;;10.47;70.11;99747.53;4954145;28;20160;-49
2022/09/06 04:32:22;;;;;;;1.70;0.80;;;;;;;10.50;70.33;99750.03;4954228;28;20042;-46
2022/09/06 04:34:48;;;;;;;2.42;0.90;;;;;;;10.50;70.57;99753.50;4970815;28;20073;-48
2022/09/06 04:37:16;;;;;;;1.77;1.25;;;;;;;10.49;70.56;99748.34;4970958;28;20077;-46
2022/09/06 04:39:43;;;;;;;1.70;0.90;;;;;;;10.34;70.59;99728.06;4970866;28;20101;-49
2022/09/06 04:42:09;;;;;;;4.57;1.75;;;;;;;10.46;70.63;99744.09;4969824;28;20463;-45
2022/09/06 04:44:35;;;;;;;2.28;1.48;;;;;;;10.52;71.05;99748.25;4970330;28;20093;-47
2022/09/06 04:47:08;;;;;;;1.33;1.00;;;;;;;10.43;70.40;99720.81;4971173;28;20054;-47
2022/09/06 04:49:34;;;;;;;4.32;1.30;;;;;;;10.51;70.74;99720.56;4970497;28;20050;-49
2022/09/06 04:52:00;;;;;;;2.47;1.15;;;;;;;10.74;69.71;99738.81;4950443;28;20043;-46
2022/09/06 04:54:26;;;;;;;5.30;1.65;;;;;;;10.83;69.78;99735.06;4964259;28;20061;-49
2022/09/06 04:56:52;;;;;;;2.55;1.30;;;;;;;10.65;69.19;99701.88;4965929;28;20066;-45
2022/09/06 04:59:18;;;;;;;1.17;0.80;;;;;;;10.93;69.23;99749.44;4964231;28;20604;-47
2022/09/06 05:01:44;;;;;;;3.25;1.10;;;;;;;10.97;68.85;99748.44;4969753;28;20048;-49
2022/09/06 05:04:10;;;;;;;3.47;0.93;;;;;;;11.02;68.65;99739.56;4971974;28;20042;-46
2022/09/06 05:06:38;;;;;;;3.70;0.80;;;;;;;11.15;67.98;99733.94;4970853;28;20038;-47
2022/09/06 05:09:03;;;;;;;3.30;0.60;;;;;;;11.20;67.33;99734.63;4971277;28;20046;-46
2022/09/06 05:11:29;;;;;;;4.13;0.90;;;;;;;11.11;67.87;99711.50;4968627;28;20043;-48
2022/09/06 05:13:55;;;;;;;3.25;1.13;;;;;;;11.26;66.92;99719.59;4958275;28;20038;-46
2022/09/06 05:16:21;;;;;;;3.28;1.02;;;;;;;11.41;66.63;99734.66;4970104;28;20074;-50
2022/09/06 05:18:47;;;;;;;5.68;2.20;;;;;;;11.26;66.39;99717.00;4970783;28;20178;-48
2022/09/06 05:21:13;;;;;;;3.13;0.90;;;;;;;11.11;66.90;99698.50;4968965;28;20038;-49
2022/09/06 05:23:39;;;;;;;2.70;1.15;;;;;;;11.29;66.47;99723.88;4971237;28;20417;-51
2022/09/06 05:26:05;;;;;;;2.05;0.70;;;;;;;11.46;66.20;99735.34;4969088;28;20046;-47
2022/09/06 05:28:31;;;;;;;1.88;0.82;;;;;;;11.42;65.82;99725.94;4968454;28;20042;-48
2022/09/06 05:31:26;;;;;;;2.88;1.38;;;;;;;11.56;65.18;99740.22;4971570;28;20064;-50
2022/09/06 05:33:53;;;;;;;4.35;2.10;;;;;;;11.54;65.02;99740.28;4969163;28;20053;-48
2022/09/06 05:36:19;;;;;;;1.45;0.70;;;;;;;11.54;64.81;99739.44;4971485;28;20532;-48
2022/09/06 05:38:45;;;;;;;3.05;0.80;;;;;;;11.61;65.29;99751.31;4969565;28;20073;-47
2022/09/06 05:41:11;;;;;;;2.05;1.40;;;;;;;11.62;65.07;99745.22;4968793;28;20511;-50
2022/09/06 05:43:37;;;;;;;1.73;1.00;;;;;;;11.60;64.96;99739.19;4969449;28;20185;-46
2022/09/06 05:46:02;;;;;;;2.05;1.38;;;;;;;11.54;64.94;99739.44;4971471;28;20662;-48
2022/09/06 05:48:29;;;;;;;2.42;0.88;;;;;;;11.48;65.25;99738.75;4968313;28;20580;-45
2022/09/06 05:51:13;;;;;;;3.33;1.23;;;;;;;11.46;64.84;99743.16;4953333;28;20038;-48
2022/09/06 05:53:43;;;;;;;4.78;1.42;;;;;;;11.48;64.94;99745.72;4962401;28;20125;-49
2022/09/06 05:56:11;;;;;;;4.75;1.70;;;;;;;11.60;64.32;99739.19;4970234;28;20039;-46
2022/09/06 05:58:37;;;;;;;1.70;1.20;;;;;;;11.66;64.40;99741.56;4968713;28;20601;-49
2022/09/06 06:01:21;;;;;;;2.78;1.40;;;;;;;11.67;64.21;99738.88;4968683;28;20043;-47
2022/09/06 06:04:00;;;;;;;4.20;1.30;;;;;;;11.74;64.23;99745.63;4969797;28;20042;-48
2022/09/06 06:06:28;;;;;;;3.97;1.25;;;;;;;12.01;64.02;99738.50;4970076;28;20046;-46
2022/09/06 06:08:55;;;;;;;2.47;1.52;;;;;;;11.98;63.12;99704.75;4965704;28;20039;-49
2022/09/06 06:11:21;;;;;;;3.95;1.65;;;;;;;12.45;62.54;99749.75;4968344;28;20038;-46
2022/09/06 06:13:47;;;;;;;3.97;1.63;;;;;;;12.74;62.27;99743.31;4969086;28;20121;-49
2022/09/06 06:16:15;;;;;;;1.98;1.70;;;;;;;13.03;61.32;99737.69;4967560;28;20470;-49
2022/09/06 06:18:41;;;;;;;2.80;2.00;;;;;;;13.56;59.94;99750.16;4951733;28;20034;-47
2022/09/06 06:21:09;;;;;;;2.70;1.63;;;;;;;13.57;59.23;99744.88;4968923;28;20046;-47
2022/09/06 06:23:35;;;;;;;3.38;1.60;;;;;;;13.31;59.41;99737.34;4968668;28;20079;-44
2022/09/06 06:26:01;;;;;;;4.43;1.98;;;;;;;12.84;59.07;99739.41;4967484;28;20124;-48
2022/09/06 06:28:27;;;;;;;1.80;1.33;;;;;;;12.44;59.82;99727.19;4969245;28;20134;-54
2022/09/06 06:30:53;;;;;;;2.88;1.45;;;;;;;12.47;60.29;99749.66;4966167;28;20074;-50
2022/09/06 06:33:19;;;;;;;2.25;1.30;;;;;;;12.25;60.14;99708.81;4969289;28;20047;-49
2022/09/06 06:35:59;;;;;;;2.75;1.60;;;;;;;12.38;59.91;99724.84;4969223;28;20038;-48
2022/09/06 06:38:33;;;;;;;5.15;2.40;;;;;;;12.49;59.94;99753.06;4964886;28;20117;-47
2022/09/06 06:41:00;;;;;;;4.53;1.83;;;;;;;12.44;59.75;99729.81;4967847;28;20154;-48
2022/09/06 06:43:26;;;;;;;2.20;1.35;;;;;;;12.72;59.75;99745.97;4968326;28;20160;-46
2022/09/06 06:45:52;;;;;;;2.72;1.70;;;;;;;12.85;59.38;99748.06;4965932;28;20467;-50
2022/09/06 06:48:18;;;;;;;12.05;3.75;;;;;;;12.93;58.95;99746.81;4968774;28;20050;-49
2022/09/06 06:50:44;;;;;;;2.28;1.40;;;;;;;12.78;58.41;99725.75;4968527;28;20121;-49
2022/09/06 06:53:10;;;;;;;3.17;1.38;;;;;;;12.87;58.64;99744.50;4965684;28;20086;-48
2022/09/06 06:55:35;;;;;;;2.33;1.30;;;;;;;12.81;58.91;99749.13;4965760;28;20073;-50
2022/09/06 06:58:02;;;;;;;1.85;1.50;;;;;;;12.74;58.89;99740.72;4968987;28;20042;-48
2022/09/06 07:00:29;;;;;;;3.53;1.70;;;;;;;12.66;58.72;99741.03;4964176;28;20034;-48
2022/09/06 07:02:55;;;;;;;2.08;1.50;;;;;;;12.66;58.79;99742.81;4967014;28;20046;-46
2022/09/06 07:05:22;;;;;;;3.17;1.40;;;;;;;13.23;58.24;99744.69;4965451;28;20039;-47
2022/09/06 07:07:48;;;;;;;2.03;1.30;;;;;;;14.98;55.48;99736.28;4967435;28;20054;-46
2022/09/06 07:10:13;;;;;;;2.67;1.45;;;;;;;16.67;51.06;99712.97;4967089;28;20035;-49
2022/09/06 07:12:39;;;;;;;1.88;1.20;;;;;;;17.37;50.17;99737.63;4951111;28;20047;-50
2022/09/06 07:15:06;;;;;;;4.97;1.30;;;;;;;17.80;48.41;99730.56;4968227;28;20038;-52
2022/09/06 07:17:31;;;;;;;4.10;1.70;;;;;;;18.11;47.61;99726.81;4969659;28;20422;-50
2022/09/06 07:19:57;;;;;;;3.50;1.25;;;;;;;17.91;46.90;99714.94;4969240;28;20043;-46
2022/09/06 07:22:23;;;;;;;4.55;1.65;;;;;;;17.40;46.91;99734.81;4967981;28;20035;-52
2022/09/06 07:24:50;;;;;;;3.88;1.33;;;;;;;16.76;47.55;99730.78;4968934;28;20047;-51
2022/09/06 07:27:16;;;;;;;3.35;1.73;;;;;;;16.20;48.17;99723.53;4960976;28;20145;-46
2022/09/06 07:29:42;;;;;;;2.72;1.40;;;;;;;15.74;49.31;99722.63;4953578;28;20255;-50
2022/09/06 07:32:08;;;;;;;2.13;1.30;;;;;;;15.44;49.60;99725.09;4969359;28;20046;-46
2022/09/06 07:34:36;;;;;;;1.23;0.88;;;;;;;15.39;49.90;99724.50;4967593;28;20045;-47
2022/09/06 07:37:05;;;;;;;1.65;1.30;;;;;;;15.58;49.72;99717.38;4973015;28;20046;-47
2022/09/06 07:39:35;;;;;;;3.40;1.58;;;;;;;16.00;48.63;99718.56;4968406;28;20047;-48
2022/09/06 07:42:02;;;;;;;4.55;2.50;;;;;;;16.18;48.37;99720.16;4973027;28;20051;-47
2022/09/06 07:44:28;;;;;;;1.05;0.90;;;;;;;15.82;48.53;99716.97;4972588;28;20038;-50
2022/09/06 07:46:54;;;;;;;1.33;0.98;;;;;;;15.42;49.16;99699.91;4953204;28;20786;-50
2022/09/06 07:49:21;;;;;;;3.55;1.10;;;;;;;15.14;49.52;99711.84;4972650;28;20045;-48
2022/09/06 07:51:47;;;;;;;1.08;0.80;;;;;;;14.75;50.70;99725.25;4952201;28;20055;-46
2022/09/06 07:54:16;;;;;;;3.58;1.00;;;;;;;14.42;51.59;99719.06;4957927;28;20039;-49
2022/09/06 07:56:42;;;;;;;4.03;0.85;;;;;;;14.20;51.79;99719.25;4971466;28;20057;-48
2022/09/06 07:59:08;;;;;;;2.60;1.23;;;;;;;14.02;52.43;99714.91;4972553;28;20039;-50
2022/09/06 08:01:36;;;;;;;5.68;1.40;;;;;;;13.91;52.78;99688.44;4970324;28;20054;-49
2022/09/06 08:04:03;;;;;;;2.80;1.17;;;;;;;14.22;52.73;99725.25;4971687;28;20133;-46
2022/09/06 08:06:30;;;;;;;2.35;1.02;;;;;;;14.56;52.21;99718.38;4972899;28;20100;-49
2022/09/06 08:08:57;;;;;;;3.00;1.20;;;;;;;14.73;51.39;99693.06;4971687;28;20529;-46
2022/09/06 08:11:25;;;;;;;1.85;0.93;;;;;;;15.01;51.23;99708.19;4972461;28;20039;-47
2022/09/06 08:13:55;;;;;;;4.20;1.27;;;;;;;15.14;50.95;99713.63;4969205;28;20049;-47
2022/09/06 08:16:24;;;;;;;2.25;0.88;;;;;;;15.03;50.88;99714.19;4969571;28;20047;-48
2022/09/06 08:18:51;;;;;;;1.33;0.90;;;;;;;16.10;49.41;99714.50;4972822;28;20042;-47
2022/09/06 08:21:18;;;;;;;1.08;0.70;;;;;;;18.44;44.97;99715.88;4970448;28;20150;-49
2022/09/06 08:23:49;;;;;;;4.50;1.00;;;;;;;19.07;43.44;99709.88;4970103;28;20050;-48
2022/09/06 08:26:16;;;;;;;2.22;1.13;;;;;;;18.92;43.44;99706.50;4968910;28;20078;-48
2022/09/06 08:28:42;;;;;;;1.85;0.80;;;;;;;19.79;41.75;99690.69;4970728;28;20043;-48
2022/09/06 08:31:15;;;;;;;2.08;0.80;;;;;;;19.31;41.71;99695.84;4954846;28;20035;-48
2022/09/06 08:33:42;;;;;;;3.80;0.80;;;;;;;18.53;42.34;99681.03;4970964;28;20538;-49
2022/09/06 08:36:08;;;;;;;2.95;0.60;;;;;;;18.11;43.10;99697.88;4972495;28;20042;-44
2022/09/06 08:38:35;;;;;;;1.80;1.10;;;;;;;17.90;43.39;99694.03;4971698;28;20133;-45
2022/09/06 08:41:11;;;;;;;4.07;1.15;;;;;;;17.82;43.10;99681.34;4970113;28;20058;-48
2022/09/06 08:43:38;;;;;;;1.95;1.20;;;;;;;17.95;43.18;99676.16;4971822;28;20073;-47
2022/09/06 08:46:05;;;;;;;1.77;0.90;;;;;;;19.77;40.60;99688.19;4954666;28;20035;-51
2022/09/06 08:48:34;;;;;;;0.73;0.70;;;;;;;20.86;38.82;99678.31;4953693;28;20078;-47
2022/09/06 08:51:10;;;;;;;2.47;0.98;;;;;;;20.40;39.08;99678.34;4970737;28;20138;-49
2022/09/06 08:53:38;;;;;;;4.65;0.85;;;;;;;19.79;39.50;99669.59;4970293;28;20518;-48
2022/09/06 08:56:12;;;;;;;1.30;0.93;;;;;;;19.15;40.11;99668.88;4970582;28;20078;-50
2022/09/06 08:59:07;;;;;;;2.45;0.93;;;;;;;18.53;40.98;99666.06;4972047;28;20538;-51
2022/09/06 09:01:52;;;;;;;1.77;0.90;;;;;;;18.02;41.90;99674.78;4952509;28;20035;-50
2022/09/06 09:04:21;;;;;;;1.73;1.00;;;;;;;17.60;42.58;99652.94;4971509;28;20578;-47
2022/09/06 09:06:51;;;;;;;0.93;0.82;;;;;;;17.81;43.03;99670.91;4971584;28;20046;-45
2022/09/06 09:09:16;;;;;;;2.03;1.10;;;;;;;17.58;43.29;99656.59;4951079;28;20035;-46
2022/09/06 09:11:46;;;;;;;1.80;0.90;;;;;;;17.24;44.49;99673.59;4966475;28;20050;-45
2022/09/06 09:14:18;;;;;;;2.55;1.77;;;;;;;17.22;45.23;99678.09;4970278;28;20097;-47
2022/09/06 09:16:44;;;;;;;3.05;1.67;;;;;;;17.23;45.58;99672.75;4953862;28;20130;-45
2022/09/06 09:19:10;;;;;;;2.75;1.20;;;;;;;17.08;45.88;99675.47;4964834;28;20043;-46
2022/09/06 09:21:38;;;;;;;2.47;1.10;;;;;;;16.76;46.07;99677.44;4964799;28;20050;-44
2022/09/06 09:24:07;;;;;;;3.97;1.20;;;;;;;16.41;46.81;99650.63;4954188;28;20038;-45
2022/09/06 09:26:49;;;;;;;4.80;0.93;;;;;;;16.37;46.91;99670.09;4971016;28;20132;-45
2022/09/06 09:29:16;;;;;;;8.75;4.00;;;;;;;16.03;47.50;99655.44;4969304;28;20042;-45
2022/09/06 09:31:51;;;;;;;4.35;1.67;;;;;;;15.82;48.32;99675.88;4971171;28;20096;-48
2022/09/06 09:34:32;;;;;;;2.85;0.80;;;;;;;15.54;49.61;99687.03;4969231;28;20077;-47
2022/09/06 09:37:19;;;;;;;16.70;3.20;;;;;;;15.37;51.36;99676.59;4970061;28;20077;-52
2022/09/06 09:39:47;;;;;;;2.75;1.20;;;;;;;15.39;51.99;99677.34;4970028;28;20042;-48
2022/09/06 09:42:25;;;;;;;7.43;1.45;;;;;;;15.86;51.35;99671.31;4954346;28;20042;-47
2022/09/06 09:44:51;;;;;;;1.73;1.10;;;;;;;16.75;50.20;99673.94;4969027;28;20078;-44
2022/09/06 09:47:27;;;;;;;2.17;0.80;;;;;;;17.92;47.48;99677.19;4970524;28;20091;-47
2022/09/06 09:49:54;;;;;;;1.40;0.68;;;;;;;17.60;47.17;99657.34;4966122;28;20105;-48
2022/09/06 09:52:26;;;;;;;1.45;0.75;;;;;;;17.49;47.42;99680.81;4970787;28;20074;-46
2022/09/06 09:54:54;;;;;;;2.00;0.82;;;;;;;17.14;47.77;99673.34;4970672;28;20042;-45
2022/09/06 09:57:21;;;;;;;2.70;0.70;;;;;;;16.95;47.89;99680.66;4970660;28;20042;-46
2022/09/06 10:00:00;;;;;;;3.40;0.75;;;;;;;16.76;47.78;99682.69;4952353;28;20049;-45
2022/09/06 10:02:30;;;;;;;3.08;1.00;;;;;;;16.65;47.95;99674.59;4968636;28;20039;-45
2022/09/06 10:05:02;;;;;;;3.15;1.20;;;;;;;16.49;48.31;99683.34;4962935;28;20058;-48
2022/09/06 10:07:31;;;;;;;2.85;1.40;;;;;;;16.33;48.65;99679.09;4964507;28;20034;-51
2022/09/06 10:10:07;;;;;;;2.72;1.20;;;;;;;16.06;48.62;99655.28;4967682;28;20046;-52
2022/09/06 10:12:38;;;;;;;0.77;0.75;;;;;;;16.09;48.70;99676.94;4968616;28;20045;-47
2022/09/06 10:15:06;;;;;;;2.50;0.80;;;;;;;15.91;48.89;99664.03;4965905;28;20094;-50
2022/09/06 10:17:34;;;;;;;2.40;0.75;;;;;;;15.70;48.94;99645.13;4966635;28;20046;-50
2022/09/06 10:20:11;;;;;;;2.80;1.00;;;;;;;15.84;49.46;99665.28;4969657;28;20047;-50
2022/09/06 10:22:58;;;;;;;2.20;1.00;;;;;;;16.03;49.07;99664.16;4967902;28;20733;-49
2022/09/06 10:25:44;;;;;;;2.13;1.20;;;;;;;15.79;49.35;99670.81;4961537;28;20046;-46
2022/09/06 10:28:30;;;;;;;2.40;1.25;;;;;;;15.42;50.01;99651.00;4968767;28;20093;-47
2022/09/06 10:31:17;;;;;;;2.22;1.10;;;;;;;15.33;50.44;99666.38;4981545;28;20046;-45
2022/09/06 10:33:55;;;;;;;1.98;1.02;;;;;;;15.15;50.81;99668.19;4966192;28;20035;-49
2022/09/06 10:36:29;;;;;;;2.40;1.05;;;;;;;15.04;51.49;99667.91;4969036;28;20426;-46
2022/09/06 10:39:02;;;;;;;1.40;1.00;;;;;;;14.63;51.66;99634.28;4967325;28;20045;-46
2022/09/06 10:42:01;;;;;;;2.17;1.10;;;;;;;14.75;52.20;99669.44;4967707;28;20534;-50
2022/09/06 10:44:27;;;;;;;;;;;;;;;14.67;51.88;99672.44;4967447;28;20090;-55
2022/09/06 10:47:04;;;;;;;4.38;1.33;;;;;;;14.62;52.31;99665.75;4966724;28;19918;-49
2022/09/06 10:49:30;;;;;;;2.25;1.20;;;;;;;14.83;51.82;99659.41;4951874;28;20039;-45
2022/09/06 10:51:59;;;;;;;5.85;1.58;;;;;;;14.96;51.67;99657.00;4976151;28;20519;-52
2022/09/06 10:54:25;;;;;;;2.10;1.58;;;;;;;14.94;51.75;99667.53;4967452;28;20046;-46
2022/09/06 10:57:00;;;;;;;3.70;1.35;;;;;;;14.65;52.23;99660.38;4967868;28;20044;-50
2022/09/06 10:59:34;;;;;;;4.40;1.33;;;;;;;14.70;52.64;99663.59;4968686;28;20043;-47
2022/09/06 11:02:37;;;;;;;4.80;1.48;;;;;;;14.60;52.91;99667.63;4948026;29;20043;-45
2022/09/06 11:05:07;;;;;;;5.28;1.70;;;;;;;14.40;52.87;99653.75;4967157;28;20046;-45
2022/09/06 11:07:43;;;;;;;3.58;1.40;;;;;;;14.35;53.44;99665.34;4965412;28;20045;-50
2022/09/06 11:10:32;;;;;;;3.95;1.30;;;;;;;14.34;53.39;99656.63;4965171;28;20065;-47
2022/09/06 11:13:05;;;;;;;1.90;1.40;;;;;;;14.45;53.33;99658.75;4968641;28;20042;-48
2022/09/06 11:16:00;;;;;;;8.60;1.88;;;;;;;14.64;53.16;99656.91;4968836;28;20047;-46
2022/09/06 11:19:00;;;;;;;13.10;6.03;;;;;;;14.86;53.53;99647.94;4962774;28;20065;-48
2022/09/06 11:21:42;;;;;;;6.55;2.30;;;;;;;14.94;53.26;99651.84;4956491;28;20574;-50
2022/09/06 11:24:29;;;;;;;5.63;1.80;;;;;;;15.20;52.51;99637.34;4951998;28;20089;-53
2022/09/06 11:27:06;;;;;;;3.67;1.70;;;;;;;15.34;52.04;99636.59;4967699;28;20050;-47
2022/09/06 11:29:33;;;;;;;24.05;4.00;;;;;;;15.59;51.41;99635.22;4983798;28;20051;-50
2022/09/06 11:32:04;;;;;;;9.38;3.00;;;;;;;15.66;50.67;99601.63;4968555;28;20043;-53
2022/09/06 11:34:33;;;;;;;1.92;1.30;;;;;;;15.71;50.67;99619.72;4967765;28;20785;-49
2022/09/06 11:37:06;;;;;;;3.53;1.75;;;;;;;15.75;50.60;99635.22;4969287;28;20066;-50
2022/09/06 11:39:37;;;;;;;3.17;1.88;;;;;;;15.62;51.21;99631.56;4967841;28;20050;-50
2022/09/06 11:43:03;;;;;;;2.97;1.65;;;;;;;15.43;52.79;99641.34;4967735;28;20085;-50
2022/09/06 11:45:46;;;;;;;10.00;7.40;;;;;;;14.97;54.18;99643.81;4962359;28;20617;-53
2022/09/06 11:48:32;;;;;;;8.20;3.08;;;;;;;14.64;55.75;99645.59;4952276;28;20133;-51
2022/09/06 11:51:01;;;;;;;3.10;1.35;;;;;;;14.29;57.15;99647.31;4961856;28;20039;-49